SBDN/PPB METAR and TAF weather

Enter ICAO airport designator
Station Type Date Time Source
SBDN METAR 2019/10/15 18:00 UTC NOAA

SBDN 151800Z 15007KT CAVOK 34/13 Q1014


Station Type Date Time Source
SBDN Decoded METAR 2019/10/15 18:00 UTC NOAA

Presidente Prudente, Brazil (SBDN) 22-07S 051-23W
Oct 15, 2019 - 02:00 PM EDT / 2019.10.15 1800 UTC
Wind: from the SSE (150 degrees) at 8 MPH (7 KT):0
Visibility: greater than 7 mile(s):0
Temperature: 93 F (34 C)
Dew Point: 55 F (13 C)
Relative Humidity: 28%
Pressure (altimeter): 29.94 in. Hg (1014 hPa)
ob: SBDN 151800Z 15007KT CAVOK 34/13 Q1014
cycle: 18

Station Type Date Time Source
SBDN TAF 2019/10/15 18:30 UTC NOAA

TAF SBDN 151530Z 1518/1606 10008KT CAVOK TX34/1518Z TN23/1606Z
RMK PER

Example: see airport list